createdAt,value
2022-11-14T00:01:09.736Z,6.60
2022-11-14T00:03:37.308Z,6.60
2022-11-14T00:06:08.178Z,6.60
2022-11-14T00:08:35.470Z,6.60
2022-11-14T00:11:02.352Z,6.60
2022-11-14T00:13:29.111Z,7.60
2022-11-14T00:15:55.884Z,6.60
2022-11-14T00:18:22.886Z,6.90
2022-11-14T00:20:51.074Z,6.60
2022-11-14T00:23:18.352Z,6.60
2022-11-14T00:25:46.265Z,6.70
2022-11-14T00:28:13.437Z,6.70
2022-11-14T00:30:40.170Z,6.70
2022-11-14T00:33:06.939Z,7.60
2022-11-14T00:35:33.747Z,6.80
2022-11-14T00:38:00.579Z,6.70
2022-11-14T00:40:28.875Z,6.80
2022-11-14T00:42:55.586Z,6.80
2022-11-14T00:45:22.309Z,6.80
2022-11-14T00:47:49.108Z,6.80
2022-11-14T00:50:17.121Z,6.80
2022-11-14T00:52:44.012Z,6.80
2022-11-14T00:55:10.764Z,6.80
2022-11-14T00:57:37.501Z,6.80
2022-11-14T01:00:05.854Z,6.80
2022-11-14T01:02:32.889Z,6.80
2022-11-14T01:05:00.168Z,6.80
2022-11-14T01:07:27.158Z,6.80
2022-11-14T01:09:53.973Z,6.80
2022-11-14T01:12:20.676Z,6.70
2022-11-14T01:14:47.718Z,6.80
2022-11-14T01:17:14.391Z,6.80
2022-11-14T01:19:41.105Z,6.70
2022-11-14T01:22:07.934Z,6.80
2022-11-14T01:24:35.210Z,6.80
2022-11-14T01:27:02.759Z,6.80
2022-11-14T01:29:29.720Z,6.80
2022-11-14T01:31:56.464Z,6.80
2022-11-14T01:34:23.814Z,6.80
2022-11-14T01:36:50.640Z,6.80
2022-11-14T01:39:17.471Z,6.80
2022-11-14T01:41:44.149Z,6.80
2022-11-14T01:44:37.668Z,6.80
2022-11-14T01:47:05.310Z,6.90
2022-11-14T01:49:38.730Z,6.90
2022-11-14T01:52:30.738Z,6.90
2022-11-14T01:55:01.043Z,6.90
2022-11-14T01:57:31.028Z,6.90
2022-11-14T02:00:05.774Z,7.70
2022-11-14T02:02:32.673Z,6.90
2022-11-14T02:05:04.773Z,6.90
2022-11-14T02:07:35.178Z,6.90
2022-11-14T02:10:06.058Z,7.00
2022-11-14T02:12:33.462Z,7.00
2022-11-14T02:15:01.170Z,7.00
2022-11-14T02:17:30.109Z,6.90
2022-11-14T02:20:05.313Z,7.50
2022-11-14T02:22:34.012Z,6.90
2022-11-14T02:25:00.774Z,6.90
2022-11-14T02:27:27.646Z,6.90
2022-11-14T02:29:54.348Z,7.00
2022-11-14T02:32:21.030Z,6.90
2022-11-14T02:34:47.713Z,6.90
2022-11-14T02:37:14.545Z,6.90
2022-11-14T02:39:41.261Z,6.90
2022-11-14T02:42:07.967Z,6.90
2022-11-14T02:44:34.827Z,6.90
2022-11-14T02:47:01.505Z,6.90
2022-11-14T02:49:28.689Z,6.80
2022-11-14T02:51:55.387Z,6.80
2022-11-14T02:54:22.058Z,6.80
2022-11-14T02:56:48.810Z,6.80
2022-11-14T02:59:15.486Z,6.80
2022-11-14T03:01:42.236Z,6.80
2022-11-14T03:04:08.942Z,6.80
2022-11-14T03:06:35.655Z,6.70
2022-11-14T03:09:02.775Z,6.80
2022-11-14T03:11:29.528Z,6.80
2022-11-14T03:13:56.208Z,6.80
2022-11-14T03:16:22.960Z,6.80
2022-11-14T03:18:49.646Z,6.80
2022-11-14T03:21:19.227Z,6.70
2022-11-14T03:23:46.392Z,6.70
2022-11-14T03:26:14.636Z,6.70
2022-11-14T03:28:44.707Z,6.70
2022-11-14T03:31:13.372Z,7.40
2022-11-14T03:33:40.168Z,6.60
2022-11-14T03:36:07.601Z,6.60
2022-11-14T03:38:35.553Z,6.60
2022-11-14T03:41:02.245Z,6.60
2022-11-14T03:43:33.990Z,6.70
2022-11-14T03:46:02.557Z,6.70
2022-11-14T03:48:32.834Z,6.60
2022-11-14T03:50:59.896Z,6.60
2022-11-14T03:53:28.795Z,6.60
2022-11-14T03:55:56.744Z,6.60
2022-11-14T03:58:24.083Z,6.60
2022-11-14T04:00:51.020Z,6.60
2022-11-14T04:03:17.792Z,6.50
2022-11-14T04:05:45.614Z,6.50
2022-11-14T04:08:12.436Z,7.00
2022-11-14T04:10:39.226Z,6.50
2022-11-14T04:13:05.968Z,6.50
2022-11-14T04:15:32.798Z,6.40
2022-11-14T04:17:59.861Z,7.20
2022-11-14T04:20:26.987Z,6.40
2022-11-14T04:22:53.679Z,6.30
2022-11-14T04:25:20.430Z,6.20
2022-11-14T04:27:47.897Z,6.20
2022-11-14T04:30:14.584Z,6.10
2022-11-14T04:32:41.278Z,6.10
2022-11-14T04:35:11.713Z,6.10
2022-11-14T04:37:39.343Z,6.20
2022-11-14T04:40:09.680Z,6.20
2022-11-14T04:42:36.407Z,6.10
2022-11-14T04:45:03.420Z,6.10
2022-11-14T04:47:30.157Z,6.10
2022-11-14T04:49:56.839Z,6.30
2022-11-14T04:52:25.351Z,6.10
2022-11-14T04:54:52.062Z,6.10
2022-11-14T04:57:18.763Z,6.10
2022-11-14T04:59:45.452Z,6.10
2022-11-14T05:02:12.213Z,6.10
2022-11-14T05:04:41.657Z,6.10
2022-11-14T05:07:08.385Z,6.10
2022-11-14T05:09:36.746Z,6.10
2022-11-14T05:12:04.384Z,6.10
2022-11-14T05:14:33.914Z,6.10
2022-11-14T05:17:00.740Z,6.10
2022-11-14T05:19:27.475Z,6.10
2022-11-14T05:21:54.147Z,5.90
2022-11-14T05:24:20.912Z,6.70
2022-11-14T05:26:47.869Z,6.10
2022-11-14T05:29:14.711Z,6.10
2022-11-14T05:31:41.556Z,7.40
2022-11-14T05:34:08.216Z,6.20
2022-11-14T05:36:34.933Z,6.20
2022-11-14T05:39:01.706Z,6.20
2022-11-14T05:41:28.370Z,6.20
2022-11-14T05:43:56.185Z,6.20
2022-11-14T05:46:22.876Z,6.20
2022-11-14T05:48:49.559Z,6.90
2022-11-14T05:51:16.429Z,6.20
2022-11-14T05:53:43.251Z,6.20
2022-11-14T05:56:12.213Z,6.20
2022-11-14T05:58:39.693Z,6.30
2022-11-14T06:01:15.957Z,6.30
2022-11-14T06:03:44.916Z,6.30
2022-11-14T06:06:14.894Z,6.30
2022-11-14T06:08:42.187Z,6.30
2022-11-14T06:11:12.097Z,6.30
2022-11-14T06:13:39.144Z,6.30
2022-11-14T06:16:09.556Z,6.30
2022-11-14T06:18:36.992Z,6.20
2022-11-14T06:21:11.429Z,6.20
2022-11-14T06:23:38.313Z,6.20
2022-11-14T06:26:07.901Z,6.30
2022-11-14T06:28:34.953Z,6.30
2022-11-14T06:31:04.496Z,6.30
2022-11-14T06:33:35.076Z,6.30
2022-11-14T06:36:06.545Z,6.30
2022-11-14T06:38:35.206Z,6.20
2022-11-14T06:41:13.328Z,6.30
2022-11-14T06:43:42.234Z,6.20
2022-11-14T06:46:11.163Z,6.20
2022-11-14T06:48:38.407Z,6.90
2022-11-14T06:51:06.178Z,6.20
2022-11-14T06:53:35.020Z,6.20
2022-11-14T06:56:04.873Z,6.20
2022-11-14T06:58:34.051Z,6.20
2022-11-14T07:01:12.331Z,6.20
2022-11-14T07:03:39.358Z,6.30
2022-11-14T07:06:06.862Z,6.30
2022-11-14T07:08:34.522Z,6.30
2022-11-14T07:11:07.491Z,6.20
2022-11-14T07:13:35.135Z,6.30
2022-11-14T07:16:02.203Z,6.30
2022-11-14T07:18:33.568Z,6.30
2022-11-14T07:21:05.852Z,6.30
2022-11-14T07:23:34.127Z,6.30
2022-11-14T07:26:02.567Z,6.30
2022-11-14T07:28:29.642Z,6.30
2022-11-14T07:30:56.860Z,6.30
2022-11-14T07:33:23.552Z,6.30
2022-11-14T07:35:51.625Z,6.30
2022-11-14T07:38:18.435Z,7.00
2022-11-14T07:40:59.060Z,6.30
2022-11-14T07:43:27.355Z,7.00
2022-11-14T07:45:54.241Z,6.30
2022-11-14T07:48:21.948Z,6.30
2022-11-14T07:50:48.636Z,6.30
2022-11-14T07:53:16.732Z,6.30
2022-11-14T07:55:43.516Z,6.30
2022-11-14T07:58:10.261Z,6.40
2022-11-14T08:00:37.017Z,6.40
2022-11-14T08:03:06.313Z,6.40
2022-11-14T08:05:34.629Z,6.40
2022-11-14T08:08:01.302Z,6.40
2022-11-14T08:10:33.250Z,6.40
2022-11-14T08:13:30.218Z,6.40
2022-11-14T08:15:48.885Z,6.40
2022-11-14T08:18:15.680Z,6.40
2022-11-14T08:20:42.485Z,7.10
2022-11-14T08:23:10.637Z,6.50
2022-11-14T08:25:37.371Z,6.40
2022-11-14T08:28:04.383Z,6.40
2022-11-14T08:30:31.286Z,6.40
2022-11-14T08:33:01.069Z,6.40
2022-11-14T08:35:27.756Z,6.40
2022-11-14T08:37:54.433Z,6.50
2022-11-14T08:40:21.212Z,6.40
2022-11-14T08:42:47.973Z,6.40
2022-11-14T08:45:14.846Z,6.50
2022-11-14T08:47:41.525Z,6.50
2022-11-14T08:50:08.705Z,6.90
2022-11-14T08:52:35.412Z,6.50
2022-11-14T08:55:02.622Z,6.50
2022-11-14T08:57:29.379Z,6.60
2022-11-14T08:59:56.118Z,6.70
2022-11-14T09:02:22.863Z,6.60
2022-11-14T09:04:49.619Z,7.10
2022-11-14T09:07:16.719Z,6.70
2022-11-14T09:09:43.523Z,6.70
2022-11-14T09:12:10.249Z,6.80
2022-11-14T09:14:36.961Z,6.80
2022-11-14T09:17:06.096Z,6.80
2022-11-14T09:19:33.031Z,6.80
2022-11-14T09:21:59.749Z,6.80
2022-11-14T09:24:26.419Z,6.80
2022-11-14T09:26:56.633Z,6.90
2022-11-14T09:29:23.898Z,6.90
2022-11-14T09:31:52.147Z,5.50
2022-11-14T09:34:18.873Z,6.90
2022-11-14T09:36:46.648Z,8.10
2022-11-14T09:39:13.501Z,7.00
2022-11-14T09:41:55.990Z,7.00
2022-11-14T09:44:47.890Z,7.00
2022-11-14T09:47:21.389Z,7.10
2022-11-14T09:49:51.269Z,7.10
2022-11-14T09:52:33.024Z,7.10
2022-11-14T09:55:11.593Z,7.10
2022-11-14T09:57:39.377Z,7.10
2022-11-14T10:00:17.194Z,7.20
2022-11-14T10:03:12.947Z,7.20
2022-11-14T10:06:13.783Z,7.20
2022-11-14T10:09:13.183Z,7.30
2022-11-14T10:12:04.337Z,7.30
2022-11-14T10:14:41.341Z,7.40
2022-11-14T10:17:29.961Z,7.40
2022-11-14T10:19:56.602Z,7.50
2022-11-14T10:22:46.385Z,7.50
2022-11-14T10:25:30.544Z,7.40
2022-11-14T10:28:25.482Z,7.50
2022-11-14T10:31:05.273Z,7.60
2022-11-14T10:33:47.264Z,7.50
2022-11-14T10:36:46.063Z,7.60
2022-11-14T10:39:20.602Z,7.60
2022-11-14T10:41:57.893Z,7.60
2022-11-14T10:44:31.693Z,7.50
2022-11-14T10:47:05.981Z,7.60
2022-11-14T10:49:38.799Z,7.60
2022-11-14T10:52:12.515Z,7.60
2022-11-14T10:54:50.591Z,7.70
2022-11-14T10:57:20.319Z,7.70
2022-11-14T10:59:47.490Z,7.80
2022-11-14T11:02:15.200Z,7.80
2022-11-14T11:04:44.132Z,7.80
2022-11-14T11:07:30.811Z,7.80
2022-11-14T11:10:20.429Z,7.80
2022-11-14T11:12:50.643Z,9.10
2022-11-14T11:15:40.752Z,7.90
2022-11-14T11:18:35.203Z,7.90
2022-11-14T11:21:15.420Z,8.00
2022-11-14T11:24:08.943Z,8.00
2022-11-14T11:26:35.639Z,9.00
2022-11-14T11:29:14.827Z,8.10
2022-11-14T11:31:55.991Z,8.20
2022-11-14T11:34:28.632Z,8.10
2022-11-14T11:40:06.776Z,8.10
2022-11-14T11:43:31.646Z,8.20
2022-11-14T11:45:34.810Z,8.20
2022-11-14T11:48:06.174Z,8.20
2022-11-14T11:50:32.846Z,8.20
2022-11-14T11:53:24.270Z,8.20
2022-11-14T11:56:00.232Z,8.30
2022-11-14T11:58:44.608Z,8.30
2022-11-14T12:01:12.649Z,8.30
2022-11-14T12:03:41.589Z,8.30
2022-11-14T12:06:16.144Z,8.20
2022-11-14T12:09:14.648Z,8.20
2022-11-14T12:11:46.885Z,8.20
2022-11-14T12:14:38.101Z,8.10
2022-11-14T12:17:23.074Z,8.10
2022-11-14T12:20:27.928Z,8.10
2022-11-14T12:23:12.239Z,8.00
2022-11-14T12:25:54.001Z,8.00
2022-11-14T12:28:35.063Z,8.00
2022-11-14T12:31:06.058Z,9.30
2022-11-14T12:33:40.396Z,8.10
2022-11-14T12:36:11.283Z,8.10
2022-11-14T12:38:49.223Z,8.20
2022-11-14T12:41:34.342Z,8.20
2022-11-14T12:44:29.071Z,8.20
2022-11-14T12:47:05.284Z,8.20
2022-11-14T12:49:53.635Z,8.30
2022-11-14T12:52:45.740Z,8.30
2022-11-14T12:55:18.584Z,8.30
2022-11-14T12:58:08.920Z,8.30
2022-11-14T13:01:00.124Z,8.40
2022-11-14T13:04:03.959Z,8.40
2022-11-14T13:06:36.700Z,8.40
2022-11-14T13:09:30.399Z,8.40
2022-11-14T13:12:15.572Z,8.50
2022-11-14T13:15:12.966Z,8.50
2022-11-14T13:17:58.471Z,8.50
2022-11-14T13:20:54.933Z,8.50
2022-11-14T13:23:28.046Z,8.50
2022-11-14T13:26:27.311Z,8.60
2022-11-14T13:28:54.398Z,8.60
2022-11-14T13:31:36.173Z,8.60
2022-11-14T13:34:41.481Z,8.60
2022-11-14T13:37:43.992Z,8.70
2022-11-14T13:40:35.777Z,8.70
2022-11-14T13:43:24.206Z,8.70
2022-11-14T13:46:06.037Z,8.70
2022-11-14T13:49:09.910Z,8.70
2022-11-14T13:51:43.217Z,8.70
2022-11-14T13:54:17.859Z,8.70
2022-11-14T13:57:22.527Z,8.70
2022-11-14T13:59:58.022Z,8.70
2022-11-14T14:02:33.996Z,8.70
2022-11-14T14:05:10.865Z,8.70
2022-11-14T14:08:12.542Z,8.70
2022-11-14T14:11:42.698Z,8.60
2022-11-14T14:14:51.118Z,8.60
2022-11-14T14:17:29.191Z,8.60
2022-11-14T14:20:09.185Z,8.60
2022-11-14T14:22:56.181Z,8.60
2022-11-14T14:25:46.875Z,8.60
2022-11-14T14:28:36.408Z,8.60
2022-11-14T14:31:07.797Z,8.50
2022-11-14T14:33:45.537Z,8.50
2022-11-14T14:36:25.532Z,8.50
2022-11-14T14:39:15.262Z,8.50
2022-11-14T14:41:42.384Z,8.40
2022-11-14T14:44:21.690Z,8.40
2022-11-14T14:46:48.696Z,8.40
2022-11-14T14:49:22.069Z,8.30
2022-11-14T14:51:48.937Z,8.30
2022-11-14T14:54:29.649Z,8.20
2022-11-14T14:57:02.844Z,8.80
2022-11-14T14:59:31.093Z,8.20
2022-11-14T15:01:58.709Z,8.60
2022-11-14T15:04:27.716Z,8.10
2022-11-14T15:06:58.401Z,9.50
2022-11-14T15:09:27.994Z,8.00
2022-11-14T15:11:58.318Z,7.90
2022-11-14T15:14:29.169Z,8.80
2022-11-14T15:16:57.963Z,7.80
2022-11-14T15:19:28.960Z,7.80
2022-11-14T15:22:23.463Z,7.80
2022-11-14T15:25:15.133Z,7.70
2022-11-14T15:27:53.522Z,7.60
2022-11-14T15:30:24.749Z,7.60
2022-11-14T15:32:55.296Z,7.50
2022-11-14T15:35:34.164Z,7.50
2022-11-14T15:38:42.477Z,7.50
2022-11-14T15:41:23.043Z,8.40
2022-11-14T15:43:55.689Z,7.40
2022-11-14T15:46:45.729Z,7.30
2022-11-14T15:49:25.935Z,7.30
2022-11-14T15:51:59.879Z,7.30
2022-11-14T15:54:26.625Z,7.30
2022-11-14T15:56:55.676Z,7.30
2022-11-14T15:59:22.731Z,7.30
2022-11-14T16:01:52.916Z,7.30
2022-11-14T16:04:22.583Z,7.20
2022-11-14T16:06:49.617Z,7.30
2022-11-14T16:09:19.242Z,7.30
2022-11-14T16:11:48.753Z,7.20
2022-11-14T16:14:16.205Z,7.80
2022-11-14T16:16:43.021Z,7.20
2022-11-14T16:19:16.394Z,7.20
2022-11-14T16:21:43.300Z,7.20
2022-11-14T16:24:21.890Z,7.20
2022-11-14T16:26:49.228Z,8.10
2022-11-14T16:29:16.447Z,7.20
2022-11-14T16:31:43.805Z,7.20
2022-11-14T16:34:20.066Z,8.50
2022-11-14T16:36:48.621Z,7.20
2022-11-14T16:39:15.639Z,7.20
2022-11-14T16:41:42.790Z,7.10
2022-11-14T16:44:15.822Z,7.10
2022-11-14T16:46:44.229Z,7.10
2022-11-14T16:49:16.525Z,7.10
2022-11-14T16:51:49.383Z,7.10
2022-11-14T16:54:18.597Z,7.10
2022-11-14T16:56:45.727Z,7.10
2022-11-14T16:59:12.897Z,7.10
2022-11-14T17:01:39.854Z,7.10
2022-11-14T17:04:06.651Z,7.10
2022-11-14T17:06:33.986Z,7.10
2022-11-14T17:09:01.279Z,7.30
2022-11-14T17:11:28.487Z,7.10
2022-11-14T17:13:56.343Z,7.60
2022-11-14T17:16:23.474Z,7.00
2022-11-14T17:18:54.643Z,7.80
2022-11-14T17:21:22.502Z,7.00
2022-11-14T17:24:01.465Z,6.90
2022-11-14T17:26:29.012Z,6.90
2022-11-14T17:28:56.152Z,6.90
2022-11-14T17:31:22.865Z,6.90
2022-11-14T17:33:57.658Z,6.90
2022-11-14T17:36:27.642Z,8.40
2022-11-14T17:38:55.401Z,6.80
2022-11-14T17:41:22.309Z,6.80
2022-11-14T17:43:54.208Z,6.80
2022-11-14T17:46:20.986Z,6.80
2022-11-14T17:48:47.714Z,6.80
2022-11-14T17:51:16.387Z,6.70
2022-11-14T17:53:43.354Z,7.50
2022-11-14T17:56:18.656Z,6.70
2022-11-14T17:58:46.340Z,6.80
2022-11-14T18:01:16.262Z,6.70
2022-11-14T18:03:43.184Z,6.60
2022-11-14T18:06:12.605Z,6.60
2022-11-14T18:08:39.581Z,6.60
2022-11-14T18:11:09.959Z,7.00
2022-11-14T18:13:37.427Z,7.00
2022-11-14T18:16:10.889Z,6.50
2022-11-14T18:18:37.953Z,6.50
2022-11-14T18:21:19.134Z,6.50
2022-11-14T18:23:51.377Z,6.50
2022-11-14T18:26:19.392Z,6.50
2022-11-14T18:28:46.134Z,6.50
2022-11-14T18:31:13.939Z,6.40
2022-11-14T18:33:41.618Z,6.40
2022-11-14T18:36:11.793Z,6.40
2022-11-14T18:38:38.826Z,6.30
2022-11-14T18:41:10.621Z,7.10
2022-11-14T18:43:37.327Z,7.60
2022-11-14T18:46:05.046Z,6.30
2022-11-14T18:48:32.048Z,6.20
2022-11-14T18:51:08.070Z,6.20
2022-11-14T18:53:36.046Z,6.20
2022-11-14T18:56:08.503Z,6.10
2022-11-14T18:58:36.743Z,6.20
2022-11-14T19:01:10.825Z,6.10
2022-11-14T19:03:42.771Z,6.10
2022-11-14T19:06:11.317Z,6.10
2022-11-14T19:08:38.231Z,6.10
2022-11-14T19:11:30.414Z,6.10
2022-11-14T19:14:00.497Z,6.00
2022-11-14T19:16:27.275Z,6.00
2022-11-14T19:18:55.381Z,6.00
2022-11-14T19:21:22.067Z,6.00
2022-11-14T19:23:50.398Z,6.40
2022-11-14T19:26:17.265Z,5.90
2022-11-14T19:28:43.936Z,5.90
2022-11-14T19:31:10.810Z,5.90
2022-11-14T19:33:40.446Z,5.90
2022-11-14T19:36:09.268Z,6.10
2022-11-14T19:38:36.014Z,5.80
2022-11-14T19:41:13.359Z,5.90
2022-11-14T19:43:41.022Z,5.80
2022-11-14T19:46:07.970Z,7.40
2022-11-14T19:48:35.529Z,6.70
2022-11-14T19:51:11.061Z,5.80
2022-11-14T19:53:39.170Z,5.80
2022-11-14T19:56:08.723Z,5.70
2022-11-14T19:58:37.133Z,5.70
2022-11-14T20:01:12.590Z,5.70
2022-11-14T20:03:39.924Z,5.60
2022-11-14T20:06:23.317Z,5.60
2022-11-14T20:08:51.141Z,5.60
2022-11-14T20:11:18.435Z,5.60
2022-11-14T20:13:45.414Z,5.60
2022-11-14T20:16:15.342Z,5.60
2022-11-14T20:18:46.177Z,5.60
2022-11-14T20:21:14.347Z,5.50
2022-11-14T20:23:41.137Z,5.50
2022-11-14T20:26:11.400Z,5.50
2022-11-14T20:28:42.677Z,5.50
2022-11-14T20:31:18.311Z,5.50
2022-11-14T20:33:47.157Z,5.50
2022-11-14T20:36:16.118Z,5.50
2022-11-14T20:38:44.256Z,5.40
2022-11-14T20:41:12.424Z,5.60
2022-11-14T20:43:39.558Z,5.40
2022-11-14T20:46:10.188Z,5.40
2022-11-14T20:48:36.903Z,5.40
2022-11-14T20:51:12.193Z,5.90
2022-11-14T20:53:39.209Z,5.30
2022-11-14T20:56:06.371Z,5.40
2022-11-14T20:58:33.797Z,5.30
2022-11-14T21:01:00.854Z,5.30
2022-11-14T21:03:27.824Z,5.30
2022-11-14T21:05:56.387Z,5.30
2022-11-14T21:08:23.201Z,6.20
2022-11-14T21:10:57.164Z,5.30
2022-11-14T21:13:42.606Z,6.10
2022-11-14T21:16:25.124Z,5.20
2022-11-14T21:18:54.705Z,5.30
2022-11-14T21:21:30.464Z,5.20
2022-11-14T21:23:57.635Z,5.20
2022-11-14T21:26:32.495Z,5.20
2022-11-14T21:29:06.075Z,5.20
2022-11-14T21:31:41.780Z,5.10
2022-11-14T21:34:12.353Z,5.10
2022-11-14T21:36:47.070Z,5.10
2022-11-14T21:39:18.023Z,5.10
2022-11-14T21:41:48.190Z,5.10
2022-11-14T21:44:19.372Z,5.10
2022-11-14T21:46:48.553Z,5.10
2022-11-14T21:49:15.861Z,5.10
2022-11-14T21:51:42.643Z,5.30
2022-11-14T21:54:09.802Z,5.60
2022-11-14T21:56:37.602Z,5.00
2022-11-14T21:59:16.122Z,5.00
2022-11-14T22:02:07.070Z,5.00
2022-11-14T22:04:34.464Z,5.00
2022-11-14T22:07:06.336Z,5.60
2022-11-14T22:09:33.820Z,5.00
2022-11-14T22:12:01.107Z,5.00
2022-11-14T22:14:29.475Z,5.00
2022-11-14T22:16:57.858Z,5.00
2022-11-14T22:19:24.622Z,5.00
2022-11-14T22:21:51.474Z,5.00
2022-11-14T22:24:18.194Z,5.00
2022-11-14T22:26:44.921Z,5.00
2022-11-14T22:29:11.770Z,5.50
2022-11-14T22:31:38.612Z,6.00
2022-11-14T22:34:05.398Z,4.90
2022-11-14T22:36:33.029Z,4.90
2022-11-14T22:39:00.480Z,5.30
2022-11-14T22:41:33.452Z,4.90
2022-11-14T22:44:00.813Z,4.90
2022-11-14T22:46:28.022Z,4.90
2022-11-14T22:48:55.196Z,4.90
2022-11-14T22:51:26.652Z,4.90
2022-11-14T22:53:57.949Z,4.90
2022-11-14T22:56:27.189Z,4.80
2022-11-14T22:58:54.342Z,4.90
2022-11-14T23:01:29.890Z,4.80
2022-11-14T23:04:06.124Z,4.80
2022-11-14T23:06:34.266Z,4.80
2022-11-14T23:09:02.417Z,4.80
2022-11-14T23:11:30.946Z,4.80
2022-11-14T23:13:59.340Z,4.80
2022-11-14T23:16:31.766Z,4.80
2022-11-14T23:19:01.198Z,4.80
2022-11-14T23:21:30.891Z,4.80
2022-11-14T23:24:00.065Z,4.70
2022-11-14T23:26:28.196Z,4.70
2022-11-14T23:28:55.292Z,4.70
2022-11-14T23:31:22.841Z,4.70
2022-11-14T23:33:53.401Z,4.70
2022-11-14T23:36:20.534Z,4.70
2022-11-14T23:38:47.459Z,4.60
2022-11-14T23:41:19.556Z,4.60
2022-11-14T23:43:46.877Z,4.60
2022-11-14T23:46:14.567Z,4.60
2022-11-14T23:48:41.814Z,4.60
2022-11-14T23:51:09.734Z,4.60
2022-11-14T23:53:36.596Z,4.60
2022-11-14T23:56:03.910Z,4.50
2022-11-14T23:58:30.956Z,4.50
